createdAt,value
2022-11-27T00:00:25.791Z,23.25
2022-11-27T00:01:29.775Z,19.92
2022-11-27T00:02:33.288Z,21.83
2022-11-27T00:03:39.354Z,22.83
2022-11-27T00:04:41.435Z,20.00
2022-11-27T00:05:52.399Z,21.20
2022-11-27T00:06:54.091Z,20.38
2022-11-27T00:07:55.881Z,19.48
2022-11-27T00:09:00.102Z,22.38
2022-11-27T00:10:01.962Z,23.90
2022-11-27T00:11:13.014Z,23.27
2022-11-27T00:12:14.831Z,21.35
2022-11-27T00:13:17.217Z,23.02
2022-11-27T00:14:19.005Z,23.35
2022-11-27T00:15:20.738Z,20.98
2022-11-27T00:16:23.749Z,20.27
2022-11-27T00:17:25.571Z,21.08
2022-11-27T00:18:27.676Z,21.35
2022-11-27T00:19:29.477Z,21.20
2022-11-27T00:20:32.022Z,20.92
2022-11-27T00:21:35.906Z,19.98
2022-11-27T00:22:37.893Z,21.33
2022-11-27T00:23:40.061Z,18.30
2022-11-27T00:24:44.092Z,23.15
2022-11-27T00:25:54.981Z,20.27
2022-11-27T00:26:56.818Z,19.13
2022-11-27T00:27:58.694Z,19.27
2022-11-27T00:29:01.801Z,19.23
2022-11-27T00:30:03.957Z,20.02
2022-11-27T00:31:14.489Z,20.33
2022-11-27T00:32:16.332Z,19.38
2022-11-27T00:33:18.156Z,21.02
2022-11-27T00:34:19.839Z,19.60
2022-11-27T00:35:21.711Z,20.42
2022-11-27T00:36:23.597Z,18.63
2022-11-27T00:37:25.510Z,20.55
2022-11-27T00:38:27.222Z,20.77
2022-11-27T00:39:29.053Z,21.60
2022-11-27T00:40:30.854Z,19.98
2022-11-27T00:41:32.758Z,21.88
2022-11-27T00:42:34.635Z,20.48
2022-11-27T00:43:43.956Z,21.27
2022-11-27T00:44:46.483Z,18.58
2022-11-27T00:45:51.035Z,23.33
2022-11-27T00:46:52.860Z,19.35
2022-11-27T00:47:54.837Z,20.38
2022-11-27T00:49:01.072Z,19.35
2022-11-27T00:50:04.415Z,20.33
2022-11-27T00:51:08.734Z,19.48
2022-11-27T00:52:10.447Z,21.23
2022-11-27T00:53:12.448Z,19.02
2022-11-27T00:54:14.205Z,20.60
2022-11-27T00:55:16.032Z,20.13
2022-11-27T00:56:24.391Z,21.30
2022-11-27T00:57:26.206Z,20.52
2022-11-27T00:58:30.320Z,20.85
2022-11-27T00:59:32.498Z,24.80
2022-11-27T01:00:34.285Z,20.00
2022-11-27T01:01:40.228Z,21.85
2022-11-27T01:02:42.039Z,20.95
2022-11-27T01:03:43.813Z,21.77
2022-11-27T01:04:47.330Z,22.27
2022-11-27T01:05:49.650Z,20.27
2022-11-27T01:06:51.407Z,21.23
2022-11-27T01:07:53.153Z,22.50
2022-11-27T01:08:55.127Z,20.75
2022-11-27T01:09:56.840Z,20.20
2022-11-27T01:10:59.031Z,21.88
2022-11-27T01:12:01.083Z,21.10
2022-11-27T01:13:03.256Z,20.60
2022-11-27T01:14:08.751Z,20.02
2022-11-27T01:15:11.134Z,20.40
2022-11-27T01:16:16.021Z,21.10
2022-11-27T01:17:18.383Z,20.77
2022-11-27T01:18:20.214Z,22.35
2022-11-27T01:19:21.969Z,20.27
2022-11-27T01:20:23.858Z,19.83
2022-11-27T01:21:28.539Z,21.50
2022-11-27T01:22:30.380Z,21.48
2022-11-27T01:23:32.713Z,20.63
2022-11-27T01:24:34.496Z,22.35
2022-11-27T01:25:36.286Z,22.20
2022-11-27T01:26:38.013Z,21.85
2022-11-27T01:27:39.762Z,23.27
2022-11-27T01:28:42.018Z,28.02
2022-11-27T01:29:45.041Z,23.17
2022-11-27T01:30:46.891Z,19.88
2022-11-27T01:31:48.797Z,20.15
2022-11-27T01:32:50.589Z,20.75
2022-11-27T01:33:54.945Z,19.38
2022-11-27T01:34:56.720Z,23.80
2022-11-27T01:36:02.675Z,23.85
2022-11-27T01:37:04.431Z,19.45
2022-11-27T01:38:06.322Z,17.45
2022-11-27T01:39:08.067Z,19.33
2022-11-27T01:40:10.562Z,19.77
2022-11-27T01:41:16.755Z,24.10
2022-11-27T01:42:18.756Z,21.13
2022-11-27T01:43:40.946Z,21.92
2022-11-27T01:44:54.040Z,20.20
2022-11-27T01:45:55.917Z,17.88
2022-11-27T01:47:07.266Z,20.58
2022-11-27T01:48:13.491Z,18.92
2022-11-27T01:49:35.592Z,17.95
2022-11-27T01:50:39.313Z,19.92
2022-11-27T01:52:05.534Z,20.02
2022-11-27T01:53:15.763Z,17.08
2022-11-27T01:54:19.098Z,21.48
2022-11-27T01:55:30.610Z,18.05
2022-11-27T01:56:32.357Z,19.27
2022-11-27T01:57:41.064Z,17.23
2022-11-27T01:58:43.156Z,18.65
2022-11-27T01:59:47.874Z,20.67
2022-11-27T02:00:49.635Z,17.52
2022-11-27T02:01:51.584Z,21.35
2022-11-27T02:02:53.677Z,22.15
2022-11-27T02:03:58.917Z,18.27
2022-11-27T02:05:01.100Z,19.25
2022-11-27T02:06:03.079Z,20.65
2022-11-27T02:07:05.306Z,17.00
2022-11-27T02:08:09.910Z,19.48
2022-11-27T02:09:11.857Z,19.40
2022-11-27T02:10:14.554Z,23.15
2022-11-27T02:11:24.414Z,19.83
2022-11-27T02:12:33.054Z,22.23
2022-11-27T02:14:04.019Z,21.15
2022-11-27T02:15:13.204Z,18.85
2022-11-27T02:16:28.470Z,18.00
2022-11-27T02:17:41.055Z,18.38
2022-11-27T02:19:01.195Z,20.42
2022-11-27T02:20:25.063Z,18.92
2022-11-27T02:21:54.859Z,20.80
2022-11-27T02:23:26.766Z,21.60
2022-11-27T02:24:31.742Z,18.92
2022-11-27T02:25:55.094Z,19.65
2022-11-27T02:27:01.905Z,19.95
2022-11-27T02:28:15.501Z,21.75
2022-11-27T02:29:23.828Z,19.58
2022-11-27T02:30:25.822Z,18.15
2022-11-27T02:32:49.213Z,16.40
2022-11-27T02:33:56.171Z,19.40
2022-11-27T02:35:05.965Z,18.73
2022-11-27T02:36:12.479Z,20.55
2022-11-27T02:37:32.912Z,20.38
2022-11-27T02:39:12.579Z,19.10
2022-11-27T02:40:22.861Z,19.75
2022-11-27T02:41:37.179Z,19.17
2022-11-27T02:43:01.571Z,20.17
2022-11-27T02:44:05.966Z,21.20
2022-11-27T02:45:14.369Z,21.23
2022-11-27T02:46:18.179Z,20.90
2022-11-27T02:47:20.957Z,21.60
2022-11-27T02:48:27.182Z,21.50
2022-11-27T02:49:29.358Z,22.70
2022-11-27T02:50:33.530Z,21.65
2022-11-27T02:51:41.807Z,24.05
2022-11-27T02:52:45.330Z,23.02
2022-11-27T02:53:52.770Z,25.65
2022-11-27T02:55:02.907Z,22.77
2022-11-27T02:56:12.610Z,25.08
2022-11-27T02:57:15.386Z,21.20
2022-11-27T02:58:21.804Z,20.27
2022-11-27T02:59:26.593Z,20.90
2022-11-27T03:00:30.369Z,23.25
2022-11-27T03:01:38.931Z,20.92
2022-11-27T03:02:46.670Z,20.20
2022-11-27T03:03:55.247Z,22.25
2022-11-27T03:05:01.048Z,22.73
2022-11-27T03:06:08.289Z,21.83
2022-11-27T03:07:18.085Z,21.25
2022-11-27T03:08:32.637Z,19.10
2022-11-27T03:09:38.756Z,20.08
2022-11-27T03:10:46.249Z,20.45
2022-11-27T03:11:48.860Z,20.80
2022-11-27T03:12:51.703Z,20.83
2022-11-27T03:13:59.903Z,20.73
2022-11-27T03:15:01.763Z,20.75
2022-11-27T03:16:15.889Z,20.75
2022-11-27T03:17:26.830Z,21.27
2022-11-27T03:18:43.913Z,21.27
2022-11-27T03:19:52.059Z,20.70
2022-11-27T03:21:21.396Z,18.63
2022-11-27T03:22:23.312Z,17.55
2022-11-27T03:23:25.060Z,20.67
2022-11-27T03:24:29.646Z,19.42
2022-11-27T03:25:31.425Z,17.60
2022-11-27T03:26:34.416Z,19.75
2022-11-27T03:27:42.127Z,20.85
2022-11-27T03:28:45.632Z,19.20
2022-11-27T03:29:54.306Z,16.92
2022-11-27T03:30:56.217Z,18.67
2022-11-27T03:32:00.430Z,17.75
2022-11-27T03:33:02.771Z,21.48
2022-11-27T03:34:06.617Z,23.33
2022-11-27T03:35:11.878Z,18.52
2022-11-27T03:36:16.591Z,22.05
2022-11-27T03:37:18.525Z,19.52
2022-11-27T03:38:20.321Z,18.48
2022-11-27T03:39:23.174Z,19.85
2022-11-27T03:40:48.029Z,18.02
2022-11-27T03:42:05.203Z,17.52
2022-11-27T03:43:22.372Z,16.05
2022-11-27T03:44:30.905Z,15.65
2022-11-27T03:45:43.680Z,17.48
2022-11-27T03:47:14.864Z,20.38
2022-11-27T03:48:25.508Z,19.65
2022-11-27T03:49:52.047Z,16.02
2022-11-27T03:50:56.726Z,17.58
2022-11-27T03:52:12.274Z,17.15
2022-11-27T03:53:17.409Z,16.67
2022-11-27T03:54:50.338Z,16.17
2022-11-27T03:56:27.310Z,15.60
2022-11-27T03:57:34.653Z,16.60
2022-11-27T03:58:43.962Z,17.88
2022-11-27T03:59:48.746Z,18.10
2022-11-27T04:00:51.945Z,20.00
2022-11-27T04:01:53.808Z,18.10
2022-11-27T04:02:55.534Z,17.45
2022-11-27T04:03:57.435Z,17.17
2022-11-27T04:04:59.224Z,18.92
2022-11-27T04:06:01.338Z,18.83
2022-11-27T04:07:03.295Z,17.75
2022-11-27T04:08:05.407Z,18.65
2022-11-27T04:09:07.294Z,18.10
2022-11-27T04:10:10.600Z,17.15
2022-11-27T04:11:12.595Z,18.00
2022-11-27T04:12:14.598Z,17.52
2022-11-27T04:13:16.943Z,16.17
2022-11-27T04:14:18.682Z,20.02
2022-11-27T04:15:20.387Z,17.20
2022-11-27T04:16:22.587Z,15.75
2022-11-27T04:17:24.533Z,17.48
2022-11-27T04:18:26.437Z,18.90
2022-11-27T04:19:28.700Z,18.67
2022-11-27T04:20:30.633Z,18.50
2022-11-27T04:21:32.436Z,18.60
2022-11-27T04:22:34.144Z,21.73
2022-11-27T04:23:37.685Z,30.90
2022-11-27T04:24:39.660Z,40.70
2022-11-27T04:25:41.643Z,39.97
2022-11-27T04:26:43.697Z,36.25
2022-11-27T04:27:45.576Z,36.05
2022-11-27T04:28:47.287Z,18.83
2022-11-27T04:29:49.050Z,23.42
2022-11-27T04:30:52.951Z,22.70
2022-11-27T04:31:54.728Z,18.23
2022-11-27T04:32:56.609Z,18.55
2022-11-27T04:33:58.349Z,15.80
2022-11-27T04:35:00.129Z,24.52
2022-11-27T04:36:01.926Z,21.70
2022-11-27T04:37:03.728Z,20.65
2022-11-27T04:38:05.482Z,23.33
2022-11-27T04:39:07.367Z,18.15
2022-11-27T04:40:09.836Z,22.17
2022-11-27T04:41:11.558Z,24.80
2022-11-27T04:42:13.560Z,25.08
2022-11-27T04:43:15.436Z,21.42
2022-11-27T04:44:17.547Z,23.50
2022-11-27T04:45:19.479Z,18.23
2022-11-27T04:46:21.683Z,19.33
2022-11-27T04:47:23.467Z,18.58
2022-11-27T04:48:25.193Z,21.67
2022-11-27T04:49:26.951Z,24.77
2022-11-27T04:50:28.944Z,21.95
2022-11-27T04:51:30.861Z,18.13
2022-11-27T04:52:33.135Z,20.42
2022-11-27T04:53:34.887Z,17.23
2022-11-27T04:54:37.053Z,16.10
2022-11-27T04:55:38.809Z,18.65
2022-11-27T04:56:40.627Z,20.27
2022-11-27T04:57:42.745Z,15.68
2022-11-27T04:58:44.496Z,15.75
2022-11-27T04:59:46.281Z,13.40
2022-11-27T05:00:48.135Z,15.07
2022-11-27T05:01:50.386Z,14.13
2022-11-27T05:02:52.198Z,17.38
2022-11-27T05:03:53.976Z,15.40
2022-11-27T05:04:55.797Z,16.63
2022-11-27T05:05:58.481Z,15.75
2022-11-27T05:07:00.246Z,14.50
2022-11-27T05:08:02.162Z,12.85
2022-11-27T05:09:04.003Z,15.77
2022-11-27T05:10:06.637Z,15.52
2022-11-27T05:11:12.198Z,14.48
2022-11-27T05:12:14.100Z,14.18
2022-11-27T05:13:15.907Z,15.00
2022-11-27T05:14:21.891Z,17.73
2022-11-27T05:15:23.629Z,17.60
2022-11-27T05:16:25.470Z,20.73
2022-11-27T05:17:27.270Z,19.55
2022-11-27T05:18:29.002Z,17.98
2022-11-27T05:19:31.684Z,19.15
2022-11-27T05:20:33.387Z,15.63
2022-11-27T05:21:35.364Z,19.80
2022-11-27T05:22:37.334Z,18.75
2022-11-27T05:23:39.030Z,20.55
2022-11-27T05:24:41.373Z,20.52
2022-11-27T05:25:43.267Z,21.05
2022-11-27T05:26:45.383Z,21.63
2022-11-27T05:27:47.172Z,22.25
2022-11-27T05:28:49.087Z,22.13
2022-11-27T05:29:50.810Z,23.13
2022-11-27T05:30:52.640Z,24.10
2022-11-27T05:31:54.473Z,21.90
2022-11-27T05:32:56.314Z,21.25
2022-11-27T05:33:58.263Z,23.45
2022-11-27T05:34:59.987Z,19.33
2022-11-27T05:36:01.720Z,18.20
2022-11-27T05:37:03.480Z,15.88
2022-11-27T05:38:05.229Z,16.60
2022-11-27T05:39:08.171Z,17.55
2022-11-27T05:40:10.202Z,16.20
2022-11-27T05:41:12.093Z,14.73
2022-11-27T05:42:14.180Z,14.80
2022-11-27T05:43:16.075Z,16.95
2022-11-27T05:44:17.926Z,18.92
2022-11-27T05:45:19.658Z,17.05
2022-11-27T05:46:22.783Z,14.65
2022-11-27T05:47:24.690Z,16.33
2022-11-27T05:48:26.517Z,16.23
2022-11-27T05:49:28.427Z,14.25
2022-11-27T05:50:30.371Z,15.60
2022-11-27T05:51:32.546Z,13.55
2022-11-27T05:52:34.489Z,17.33
2022-11-27T05:53:36.427Z,15.38
2022-11-27T05:54:38.702Z,14.82
2022-11-27T05:55:40.874Z,13.80
2022-11-27T05:56:42.734Z,13.32
2022-11-27T05:57:44.621Z,14.18
2022-11-27T05:58:48.226Z,17.02
2022-11-27T05:59:50.018Z,14.00
2022-11-27T06:00:52.304Z,14.82
2022-11-27T06:01:54.187Z,15.90
2022-11-27T06:02:56.586Z,14.77
2022-11-27T06:03:58.460Z,14.63
2022-11-27T06:05:00.185Z,13.80
2022-11-27T06:06:15.491Z,14.10
2022-11-27T06:07:17.680Z,14.02
2022-11-27T06:08:20.287Z,13.25
2022-11-27T06:09:22.004Z,14.57
2022-11-27T06:10:23.785Z,13.82
2022-11-27T06:11:26.027Z,14.32
2022-11-27T06:12:27.895Z,15.43
2022-11-27T06:13:29.673Z,14.40
2022-11-27T06:14:31.829Z,16.17
2022-11-27T06:15:33.807Z,15.88
2022-11-27T06:16:35.723Z,15.07
2022-11-27T06:17:37.629Z,14.30
2022-11-27T06:18:39.743Z,13.70
2022-11-27T06:19:41.976Z,14.50
2022-11-27T06:20:46.015Z,14.82
2022-11-27T06:21:49.577Z,17.50
2022-11-27T06:22:51.412Z,13.15
2022-11-27T06:23:56.751Z,14.18
2022-11-27T06:24:58.656Z,17.95
2022-11-27T06:26:19.211Z,15.70
2022-11-27T06:27:21.054Z,16.73
2022-11-27T06:28:22.779Z,17.20
2022-11-27T06:29:24.773Z,18.05
2022-11-27T06:30:26.606Z,16.60
2022-11-27T06:31:31.097Z,15.25
2022-11-27T06:32:32.984Z,18.35
2022-11-27T06:33:35.058Z,14.70
2022-11-27T06:34:36.943Z,14.95
2022-11-27T06:35:38.709Z,15.70
2022-11-27T06:36:41.123Z,14.65
2022-11-27T06:37:42.878Z,15.32
2022-11-27T06:38:45.764Z,18.33
2022-11-27T06:39:49.249Z,13.77
2022-11-27T06:40:50.991Z,15.13
2022-11-27T06:41:52.731Z,12.88
2022-11-27T06:42:54.623Z,14.65
2022-11-27T06:43:58.927Z,14.70
2022-11-27T06:45:00.658Z,13.25
2022-11-27T06:46:03.721Z,16.85
2022-11-27T06:47:05.829Z,13.32
2022-11-27T06:48:07.776Z,17.75
2022-11-27T06:49:10.116Z,11.90
2022-11-27T06:50:12.076Z,18.45
2022-11-27T06:51:17.272Z,17.55
2022-11-27T06:52:19.190Z,14.93
2022-11-27T06:53:21.231Z,15.15
2022-11-27T06:54:23.269Z,15.15
2022-11-27T06:55:25.127Z,17.55
2022-11-27T06:56:28.303Z,14.70
2022-11-27T06:57:31.218Z,15.38
2022-11-27T06:58:33.309Z,14.00
2022-11-27T06:59:35.004Z,13.50
2022-11-27T07:00:36.797Z,14.15
2022-11-27T07:01:38.594Z,14.88
2022-11-27T07:02:40.473Z,14.52
2022-11-27T07:03:42.592Z,15.15
2022-11-27T07:04:45.266Z,16.85
2022-11-27T07:05:47.135Z,14.45
2022-11-27T07:06:49.158Z,14.63
2022-11-27T07:07:51.314Z,17.35
2022-11-27T07:08:54.141Z,15.75
2022-11-27T07:09:55.876Z,21.35
2022-11-27T07:11:08.583Z,29.05
2022-11-27T07:12:10.582Z,21.17
2022-11-27T07:13:12.303Z,26.30
2022-11-27T07:14:14.110Z,23.58
2022-11-27T07:15:15.940Z,26.33
2022-11-27T07:16:18.945Z,27.17
2022-11-27T07:17:20.744Z,18.98
2022-11-27T07:18:22.507Z,19.48
2022-11-27T07:19:24.287Z,17.23
2022-11-27T07:20:26.060Z,16.00
2022-11-27T07:21:28.814Z,16.60
2022-11-27T07:22:32.656Z,17.73
2022-11-27T07:23:36.059Z,16.10
2022-11-27T07:24:37.982Z,15.63
2022-11-27T07:25:39.854Z,15.93
2022-11-27T07:26:41.666Z,17.27
2022-11-27T07:27:43.515Z,16.08
2022-11-27T07:28:46.087Z,14.93
2022-11-27T07:29:47.966Z,15.98
2022-11-27T07:30:58.108Z,17.85
2022-11-27T07:31:59.873Z,13.32
2022-11-27T07:33:02.006Z,13.55
2022-11-27T07:34:06.853Z,15.35
2022-11-27T07:35:11.840Z,14.10
2022-11-27T07:36:20.465Z,15.98
2022-11-27T07:37:22.186Z,14.82
2022-11-27T07:38:23.920Z,14.60
2022-11-27T07:39:54.171Z,15.70
2022-11-27T07:40:50.118Z,14.48
2022-11-27T07:41:52.185Z,14.52
2022-11-27T07:42:53.942Z,14.98
2022-11-27T07:43:55.692Z,13.43
2022-11-27T07:44:57.531Z,15.50
2022-11-27T07:45:59.578Z,15.90
2022-11-27T07:47:01.394Z,15.38
2022-11-27T07:48:03.153Z,17.50
2022-11-27T07:49:05.274Z,17.33
2022-11-27T07:50:08.664Z,16.88
2022-11-27T07:51:12.121Z,17.70
2022-11-27T07:52:14.967Z,15.57
2022-11-27T07:53:16.853Z,17.50
2022-11-27T07:54:18.594Z,17.23
2022-11-27T07:55:20.302Z,20.45
2022-11-27T07:56:22.195Z,21.38
2022-11-27T07:57:24.023Z,17.52
2022-11-27T07:58:25.776Z,18.83
2022-11-27T07:59:27.812Z,16.58
2022-11-27T08:00:29.694Z,16.13
2022-11-27T08:01:31.476Z,20.85
2022-11-27T08:02:33.307Z,18.58
2022-11-27T08:03:35.421Z,15.38
2022-11-27T08:04:37.241Z,14.57
2022-11-27T08:05:39.173Z,13.38
2022-11-27T08:06:40.904Z,14.30
2022-11-27T08:07:42.763Z,13.05
2022-11-27T08:08:45.426Z,13.00
2022-11-27T08:09:47.307Z,16.58
2022-11-27T08:10:49.034Z,14.65
2022-11-27T08:11:50.917Z,15.25
2022-11-27T08:12:52.661Z,14.38
2022-11-27T08:13:59.798Z,15.50
2022-11-27T08:15:01.568Z,18.23
2022-11-27T08:16:03.452Z,16.58
2022-11-27T08:17:08.637Z,17.85
2022-11-27T08:18:12.134Z,16.67
2022-11-27T08:19:13.920Z,16.20
2022-11-27T08:20:15.940Z,14.32
2022-11-27T08:21:17.846Z,19.88
2022-11-27T08:22:20.675Z,16.70
2022-11-27T08:23:22.556Z,15.55
2022-11-27T08:24:26.636Z,17.27
2022-11-27T08:25:28.442Z,17.52
2022-11-27T08:26:30.271Z,19.13
2022-11-27T08:27:33.399Z,18.85
2022-11-27T08:28:35.543Z,16.60
2022-11-27T08:29:38.245Z,16.63
2022-11-27T08:30:40.005Z,17.50
2022-11-27T08:31:41.865Z,15.48
2022-11-27T08:32:44.950Z,19.50
2022-11-27T08:33:47.413Z,18.00
2022-11-27T08:34:49.260Z,16.02
2022-11-27T08:35:51.629Z,15.88
2022-11-27T08:36:53.613Z,15.07
2022-11-27T08:37:55.507Z,19.98
2022-11-27T08:38:57.507Z,16.75
2022-11-27T08:39:59.285Z,16.75
2022-11-27T08:41:03.921Z,21.63
2022-11-27T08:42:05.763Z,20.27
2022-11-27T08:43:07.589Z,18.83
2022-11-27T08:44:09.671Z,21.40
2022-11-27T08:45:11.744Z,15.27
2022-11-27T08:46:13.649Z,15.75
2022-11-27T08:47:16.852Z,20.75
2022-11-27T08:48:19.576Z,18.42
2022-11-27T08:49:21.634Z,21.05
2022-11-27T08:50:23.371Z,20.85
2022-11-27T08:51:25.228Z,22.08
2022-11-27T08:52:27.403Z,20.38
2022-11-27T08:53:29.248Z,20.08
2022-11-27T08:54:31.015Z,16.17
2022-11-27T08:55:33.148Z,18.25
2022-11-27T08:56:36.082Z,18.67
2022-11-27T08:57:38.437Z,18.55
2022-11-27T08:58:41.193Z,15.50
2022-11-27T08:59:43.166Z,17.20
2022-11-27T09:00:44.955Z,18.42
2022-11-27T09:01:47.098Z,19.25
2022-11-27T09:02:48.853Z,19.88
2022-11-27T09:03:51.442Z,21.42
2022-11-27T09:04:54.574Z,20.77
2022-11-27T09:05:56.366Z,19.50
2022-11-27T09:06:58.837Z,24.60
2022-11-27T09:08:02.648Z,29.27
2022-11-27T09:09:06.331Z,27.95
2022-11-27T09:10:09.211Z,21.42
2022-11-27T09:11:12.443Z,26.55
2022-11-27T09:12:14.221Z,26.58
2022-11-27T09:13:16.138Z,26.70
2022-11-27T09:14:18.321Z,25.35
2022-11-27T09:15:20.083Z,31.33
2022-11-27T09:16:23.051Z,27.17
2022-11-27T09:17:24.898Z,23.10
2022-11-27T09:18:26.903Z,23.88
2022-11-27T09:19:28.860Z,21.25
2022-11-27T09:20:31.076Z,18.67
2022-11-27T09:21:32.915Z,23.08
2022-11-27T09:22:35.228Z,22.23
2022-11-27T09:23:37.842Z,18.48
2022-11-27T09:24:41.760Z,16.75
2022-11-27T09:25:43.704Z,19.63
2022-11-27T09:26:45.484Z,19.40
2022-11-27T09:27:50.047Z,19.92
2022-11-27T09:28:53.495Z,21.10
2022-11-27T09:29:55.390Z,19.48
2022-11-27T09:30:58.944Z,18.38
2022-11-27T09:32:01.149Z,19.15
2022-11-27T09:33:03.103Z,20.77
2022-11-27T09:34:05.670Z,20.25
2022-11-27T09:35:18.141Z,17.85
2022-11-27T09:36:22.761Z,18.00
2022-11-27T09:37:27.150Z,20.15
2022-11-27T09:38:29.112Z,18.52
2022-11-27T09:39:34.208Z,18.30
2022-11-27T09:40:36.057Z,17.58
2022-11-27T09:41:52.626Z,19.33
2022-11-27T09:43:02.982Z,19.85
2022-11-27T09:44:31.233Z,18.00
2022-11-27T09:45:34.888Z,20.83
2022-11-27T09:46:39.739Z,20.45
2022-11-27T09:47:49.585Z,21.52
2022-11-27T09:48:53.020Z,17.98
2022-11-27T09:49:59.242Z,18.67
2022-11-27T09:51:06.185Z,21.67
2022-11-27T09:52:12.942Z,18.48
2022-11-27T09:53:43.472Z,21.88
2022-11-27T09:54:57.776Z,21.40
2022-11-27T09:56:03.434Z,19.85
2022-11-27T09:57:06.157Z,21.58
2022-11-27T09:58:36.222Z,23.30
2022-11-27T09:59:46.929Z,21.52
2022-11-27T10:00:49.075Z,20.70
2022-11-27T10:01:53.660Z,25.73
2022-11-27T10:03:19.364Z,22.27
2022-11-27T10:04:57.891Z,21.67
2022-11-27T10:06:30.577Z,20.70
2022-11-27T10:08:24.127Z,24.40
2022-11-27T10:09:28.113Z,21.67
2022-11-27T10:10:57.601Z,22.63
2022-11-27T10:12:16.388Z,20.33
2022-11-27T10:13:43.295Z,20.70
2022-11-27T10:15:15.268Z,23.40
2022-11-27T10:18:31.902Z,33.40
2022-11-27T10:20:07.990Z,32.42
2022-11-27T10:21:24.794Z,25.00
2022-11-27T10:22:48.827Z,30.85
2022-11-27T10:24:11.507Z,32.58
2022-11-27T10:25:34.573Z,28.80
2022-11-27T10:26:45.726Z,26.30
2022-11-27T10:28:10.243Z,26.02
2022-11-27T10:29:38.397Z,36.45
2022-11-27T10:30:54.510Z,40.70
2022-11-27T10:32:01.754Z,38.85
2022-11-27T10:33:12.037Z,44.40
2022-11-27T10:34:23.630Z,36.10
2022-11-27T10:35:28.600Z,26.55
2022-11-27T10:36:44.062Z,36.95
2022-11-27T10:38:06.809Z,43.95
2022-11-27T10:39:19.574Z,49.90
2022-11-27T10:41:00.768Z,28.73
2022-11-27T10:42:22.831Z,34.38
2022-11-27T10:43:25.715Z,33.53
2022-11-27T10:44:32.795Z,33.67
2022-11-27T10:45:45.292Z,50.83
2022-11-27T10:46:49.437Z,44.08
2022-11-27T10:47:51.684Z,59.63
2022-11-27T10:48:53.927Z,40.38
2022-11-27T10:49:57.521Z,44.00
2022-11-27T10:51:00.334Z,44.90
2022-11-27T10:52:02.414Z,40.28
2022-11-27T10:53:10.574Z,33.22
2022-11-27T10:54:26.961Z,35.80
2022-11-27T10:55:55.710Z,33.75
2022-11-27T10:56:57.410Z,28.65
2022-11-27T10:58:33.513Z,34.10
2022-11-27T10:59:46.632Z,27.27
2022-11-27T11:00:48.500Z,31.40
2022-11-27T11:01:53.445Z,28.75
2022-11-27T11:03:03.742Z,30.83
2022-11-27T11:04:24.667Z,27.63
2022-11-27T11:05:41.356Z,32.75
2022-11-27T11:06:52.860Z,27.33
2022-11-27T11:08:06.640Z,26.58
2022-11-27T11:09:26.105Z,27.50
2022-11-27T11:10:44.553Z,26.83
2022-11-27T11:11:46.560Z,26.90
2022-11-27T11:12:48.668Z,24.35
2022-11-27T11:13:50.722Z,28.02
2022-11-27T11:14:57.661Z,28.45
2022-11-27T11:16:09.793Z,31.83
2022-11-27T11:17:18.505Z,25.02
2022-11-27T11:18:35.062Z,26.58
2022-11-27T11:19:38.993Z,29.60
2022-11-27T11:20:47.373Z,26.17
2022-11-27T11:21:49.375Z,27.17
2022-11-27T11:22:51.889Z,22.55
2022-11-27T11:24:12.910Z,24.90
2022-11-27T11:26:23.711Z,26.10
2022-11-27T11:27:29.726Z,26.17
2022-11-27T11:28:39.409Z,27.08
2022-11-27T11:29:49.394Z,30.73
2022-11-27T11:30:59.091Z,26.95
2022-11-27T11:32:11.352Z,25.77
2022-11-27T11:33:14.535Z,27.25
2022-11-27T11:34:35.001Z,29.13
2022-11-27T11:35:37.275Z,28.90
2022-11-27T11:36:39.289Z,26.05
2022-11-27T11:37:46.459Z,27.08
2022-11-27T11:38:49.528Z,26.17
2022-11-27T11:39:58.631Z,26.98
2022-11-27T11:41:03.907Z,30.77
2022-11-27T11:42:11.127Z,24.33
2022-11-27T11:43:42.283Z,23.33
2022-11-27T11:44:50.814Z,22.45
2022-11-27T11:45:52.641Z,19.27
2022-11-27T11:46:55.254Z,22.83
2022-11-27T11:48:03.122Z,23.55
2022-11-27T11:49:18.747Z,27.35
2022-11-27T11:50:34.051Z,24.55
2022-11-27T11:52:07.092Z,22.70
2022-11-27T11:53:20.730Z,24.63
2022-11-27T11:54:29.014Z,23.35
2022-11-27T11:55:59.304Z,26.63
2022-11-27T11:57:05.708Z,23.48
2022-11-27T11:58:29.488Z,23.42
2022-11-27T12:00:00.694Z,24.60
2022-11-27T12:01:33.179Z,23.42
2022-11-27T12:03:13.859Z,22.10
2022-11-27T12:04:21.467Z,22.55
2022-11-27T12:05:32.750Z,26.17
2022-11-27T12:08:16.375Z,24.52
2022-11-27T12:10:02.798Z,21.85
2022-11-27T12:11:18.559Z,24.70
2022-11-27T12:12:32.398Z,28.35
2022-11-27T12:14:15.904Z,17.15
2022-11-27T12:15:50.265Z,24.73
2022-11-27T12:17:14.083Z,25.73
2022-11-27T12:18:26.966Z,23.80
2022-11-27T12:19:47.380Z,20.30
2022-11-27T12:21:12.175Z,19.63
2022-11-27T12:22:22.867Z,23.80
2022-11-27T12:23:41.693Z,20.48
2022-11-27T12:24:58.891Z,22.70
2022-11-27T12:26:34.423Z,27.50
2022-11-27T12:27:57.404Z,21.08
2022-11-27T12:29:43.294Z,17.38
2022-11-27T12:30:58.002Z,20.25
2022-11-27T12:32:17.410Z,17.98
2022-11-27T12:33:53.371Z,18.63
2022-11-27T12:35:04.496Z,17.83
2022-11-27T12:36:24.974Z,17.33
2022-11-27T12:37:45.721Z,17.90
2022-11-27T12:38:55.929Z,15.65
2022-11-27T12:40:00.770Z,16.58
2022-11-27T12:41:44.799Z,17.17
2022-11-27T12:42:46.780Z,19.48
2022-11-27T12:43:52.232Z,17.77
2022-11-27T12:45:04.186Z,19.67
2022-11-27T12:46:11.589Z,17.52
2022-11-27T12:47:23.241Z,22.55
2022-11-27T12:48:44.504Z,21.88
2022-11-27T12:49:57.374Z,15.95
2022-11-27T12:51:10.864Z,14.82
2022-11-27T12:52:23.878Z,17.50
2022-11-27T12:53:37.157Z,15.18
2022-11-27T12:54:51.160Z,16.42
2022-11-27T12:56:14.930Z,14.98
2022-11-27T12:57:39.167Z,15.88
2022-11-27T12:58:46.807Z,18.02
2022-11-27T12:59:56.969Z,18.15
2022-11-27T13:01:11.391Z,18.50
2022-11-27T13:03:02.993Z,16.75
2022-11-27T13:04:24.665Z,20.92
2022-11-27T13:05:35.795Z,21.52
2022-11-27T13:06:56.699Z,23.33
2022-11-27T13:08:08.842Z,22.55
2022-11-27T13:09:21.216Z,35.90
2022-11-27T13:10:42.657Z,17.70
2022-11-27T13:11:44.754Z,12.52
2022-11-27T13:13:06.690Z,25.27
2022-11-27T13:14:17.013Z,34.55
2022-11-27T13:15:25.723Z,31.05
2022-11-27T13:16:50.376Z,27.50
2022-11-27T13:18:14.487Z,23.80
2022-11-27T13:19:33.177Z,32.92
2022-11-27T13:20:38.744Z,48.60
2022-11-27T13:21:43.262Z,27.33
2022-11-27T13:22:46.791Z,32.08
2022-11-27T13:23:49.360Z,26.52
2022-11-27T13:24:51.345Z,33.60
2022-11-27T13:25:56.447Z,24.50
2022-11-27T13:27:08.867Z,29.75
2022-11-27T13:28:22.070Z,23.55
2022-11-27T13:29:44.344Z,31.58
2022-11-27T13:30:47.875Z,28.75
2022-11-27T13:31:55.509Z,27.33
2022-11-27T13:33:01.827Z,28.88
2022-11-27T13:34:15.887Z,24.95
2022-11-27T13:35:27.462Z,21.10
2022-11-27T13:36:40.625Z,19.17
2022-11-27T13:37:42.857Z,19.13
2022-11-27T13:38:45.558Z,18.80
2022-11-27T13:39:48.063Z,20.80
2022-11-27T13:40:53.704Z,20.88
2022-11-27T13:42:22.137Z,23.25
2022-11-27T13:43:44.224Z,21.42
2022-11-27T13:45:07.297Z,20.55
2022-11-27T13:46:27.134Z,18.23
2022-11-27T13:49:08.841Z,20.10
2022-11-27T13:50:18.176Z,21.88
2022-11-27T13:52:03.653Z,20.20
2022-11-27T13:53:07.517Z,21.55
2022-11-27T13:54:23.295Z,19.88
2022-11-27T13:55:38.041Z,19.08
2022-11-27T13:56:44.558Z,19.05
2022-11-27T13:57:57.239Z,21.45
2022-11-27T13:58:59.307Z,23.75
2022-11-27T14:00:08.051Z,21.45
2022-11-27T14:01:23.150Z,21.75
2022-11-27T14:02:41.318Z,24.48
2022-11-27T14:03:47.078Z,18.80
2022-11-27T14:04:56.459Z,21.88
2022-11-27T14:06:06.910Z,20.65
2022-11-27T14:07:22.510Z,22.60
2022-11-27T14:08:38.775Z,22.13
2022-11-27T14:09:58.074Z,24.95
2022-11-27T14:11:05.939Z,22.50
2022-11-27T14:12:21.884Z,24.35
2022-11-27T14:13:58.420Z,29.20
2022-11-27T14:15:07.752Z,40.55
2022-11-27T14:16:33.411Z,39.58
2022-11-27T14:17:39.613Z,42.25
2022-11-27T14:18:51.299Z,32.10
2022-11-27T14:20:10.472Z,30.95
2022-11-27T14:21:44.594Z,30.60
2022-11-27T14:23:12.764Z,33.25
2022-11-27T14:24:39.960Z,31.63
2022-11-27T14:26:04.738Z,26.02
2022-11-27T14:27:20.230Z,27.08
2022-11-27T14:28:27.468Z,31.10
2022-11-27T14:29:31.719Z,32.78
2022-11-27T14:30:39.693Z,42.97
2022-11-27T14:31:45.595Z,51.83
2022-11-27T14:32:49.288Z,44.20
2022-11-27T14:34:15.659Z,50.88
2022-11-27T14:35:28.688Z,38.90